»·PEaware :: FFT2164 KLAX-KLAS

FFT2164 :: KLAX-KLAS

FLIGHT INFORMATION

Flight Status: Arrived
Operator:
Frontier Airlines
More flights by this operator :: More flights under this callsign
Pilot: Andrew J. (13363)
Aircraft: AIRBUS A320
(A320)
More flights by this aircraft type
Origin: KLAX Los Angeles Intl
United States
Destination: KLAS McCarran Intl
United States
More flights between these airports :: More routes between these airports
Route: ORCKA5 MISEN KEPEC6
File this flight plan on PilotEdge
Remarks:
Altitude:
(Current/Filed)
29,000ft
Speed:
(Current/Filed)
477kts
Departed: 14-Oct-20 05:24 PM
Arrived: 14-Oct-20 06:04 PM
Distance/Time
Traveled:
206nm/0:40
Distance/Time
To Go:
Arrived

Flight Plot

Page will automatically refresh every two minutes.

Flight plan parsing failed; only flown route is shown


Map Options




Map Legend


Flown Route
Filed Route
Departure Airport
Arrival Airport
Navaid (VOR, NDB)
Fix

Horizontal Profiles

Position Reports

Time Latitude Longitude Heading Altitude Ground
Speed
14-Oct-20 17:01 33.939827 -118.404645 57 128ft 0kts
14-Oct-20 17:02 33.939827 -118.404645 57 128ft 0kts
14-Oct-20 17:03 33.939827 -118.404645 57 128ft 0kts
14-Oct-20 17:04 33.939827 -118.404645 57 128ft 0kts
14-Oct-20 17:05 33.939827 -118.404645 57 128ft 0kts
14-Oct-20 17:06 33.939827 -118.404645 57 128ft 0kts
14-Oct-20 17:07 33.939827 -118.404645 57 128ft 0kts
14-Oct-20 17:08 33.939827 -118.404645 57 128ft 0kts
14-Oct-20 17:09 33.939827 -118.404645 57 128ft 0kts
14-Oct-20 17:10 33.939827 -118.404645 57 128ft 0kts
14-Oct-20 17:11 33.939827 -118.404645 57 128ft 0kts
14-Oct-20 17:12 33.939827 -118.404645 57 128ft 0kts
14-Oct-20 17:13 33.939757 -118.404774 56 128ft 2kts
14-Oct-20 17:14 33.939337 -118.405294 32 129ft 2kts
14-Oct-20 17:15 33.938994 -118.405855 87 130ft 2kts
14-Oct-20 17:16 33.938970 -118.406160 84 131ft 0kts
14-Oct-20 17:17 33.938970 -118.406160 84 131ft 0kts
14-Oct-20 17:18 33.939093 -118.404893 81 129ft 11kts
14-Oct-20 17:19 33.939687 -118.398848 82 120ft 22kts
14-Oct-20 17:20 33.940504 -118.390453 85 109ft 26kts
14-Oct-20 17:21 33.940667 -118.383249 134 105ft 17kts
14-Oct-20 17:22 33.939787 -118.380557 263 103ft 12kts
14-Oct-20 17:23 33.935645 -118.421230 261 1586ft 160kts
14-Oct-20 17:24 33.926382 -118.482608 249 3712ft 234kts
14-Oct-20 17:25 33.905095 -118.549435 248 6669ft 218kts
14-Oct-20 17:26 33.856862 -118.561574 125 9796ft 228kts
14-Oct-20 17:27 33.881861 -118.493993 45 12094ft 278kts
14-Oct-20 17:28 33.941080 -118.416706 55 13729ft 349kts
14-Oct-20 17:29 33.997986 -118.316530 56 14909ft 417kts
14-Oct-20 17:30 34.065767 -118.196794 56 17252ft 442kts
14-Oct-20 17:31 34.136474 -118.072080 56 19594ft 457kts
14-Oct-20 17:32 34.209070 -117.943226 56 21714ft 470kts
14-Oct-20 17:33 34.283621 -117.810316 56 23630ft 481kts
14-Oct-20 17:34 34.358365 -117.676986 55 26208ft 470kts
14-Oct-20 17:35 34.434837 -117.549238 54 28446ft 461kts
14-Oct-20 17:36 34.509766 -117.423575 54 29114ft 459kts
14-Oct-20 17:37 34.583666 -117.298770 55 29120ft 459kts
14-Oct-20 17:38 34.658825 -117.171272 55 29121ft 459kts
14-Oct-20 17:39 34.733464 -117.044517 55 29117ft 468kts
14-Oct-20 17:40 34.810447 -116.913334 54 29082ft 479kts
14-Oct-20 17:41 34.888494 -116.779989 54 29055ft 481kts
14-Oct-20 17:42 34.965559 -116.645416 54 29049ft 483kts
14-Oct-20 17:43 35.041892 -116.509908 54 29050ft 475kts
14-Oct-20 17:44 35.122839 -116.377472 46 29048ft 473kts
14-Oct-20 17:45 35.217483 -116.258242 44 25752ft 480kts
14-Oct-20 17:46 35.310835 -116.141067 44 21655ft 464kts
14-Oct-20 17:47 35.397905 -116.031305 44 18981ft 444kts
14-Oct-20 17:48 35.482843 -115.923875 44 16268ft 425kts
14-Oct-20 17:49 35.564782 -115.819925 44 14213ft 412kts
14-Oct-20 17:50 35.645433 -115.717306 44 13301ft 407kts
14-Oct-20 17:51 35.724719 -115.616641 40 12996ft 405kts
14-Oct-20 17:52 35.819362 -115.541661 30 12012ft 397kts
14-Oct-20 17:53 35.911037 -115.469490 31 11038ft 359kts
14-Oct-20 17:54 35.992401 -115.404510 32 11005ft 332kts
14-Oct-20 17:55 36.028510 -115.321610 95 10355ft 291kts
14-Oct-20 17:56 36.020176 -115.230276 93 8990ft 262kts
14-Oct-20 17:57 36.014168 -115.145039 92 7155ft 238kts
14-Oct-20 17:58 36.008850 -115.065904 92 5399ft 219kts
14-Oct-20 17:59 36.027538 -115.016140 345 4498ft 160kts
14-Oct-20 18:00 36.066477 -115.043486 305 4012ft 186kts
14-Oct-20 18:01 36.073651 -115.100078 272 2739ft 162kts
14-Oct-20 18:02 36.073711 -115.143701 269 2187ft 53kts
14-Oct-20 18:03 36.075336 -115.151252 321 2187ft 10kts
14-Oct-20 18:04 36.078780 -115.151665 71 2187ft 13kts
14-Oct-20 18:05 36.078399 -115.145382 93 2187ft 22kts
14-Oct-20 18:06 36.078280 -115.136819 90 2187ft 24kts
14-Oct-20 18:07 36.081593 -115.133913 346 2187ft 16kts
14-Oct-20 18:08 36.082573 -115.134758 291 2187ft 0kts

Navigation Log

Ident Type
Flight plan parsing failed, navigation log unavailable